sensor_id;sensor_type;location;lat;lon;timestamp;P1;durP1;ratioP1;P2;durP2;ratioP2
42668;SDS011;29384;42.028;21.388;2022-10-16T00:00:26;6.28;;;5.25;;
42668;SDS011;29384;42.028;21.388;2022-10-16T00:02:51;5.72;;;5.05;;
42668;SDS011;29384;42.028;21.388;2022-10-16T00:05:17;8.18;;;5.05;;
42668;SDS011;29384;42.028;21.388;2022-10-16T00:07:42;5.25;;;4.82;;
42668;SDS011;29384;42.028;21.388;2022-10-16T00:10:07;5.32;;;4.75;;
42668;SDS011;29384;42.028;21.388;2022-10-16T00:12:33;8.60;;;4.80;;
42668;SDS011;29384;42.028;21.388;2022-10-16T00:14:58;6.28;;;5.50;;
42668;SDS011;29384;42.028;21.388;2022-10-16T00:17:23;4.82;;;4.32;;
42668;SDS011;29384;42.028;21.388;2022-10-16T00:19:49;4.30;;;3.60;;
42668;SDS011;29384;42.028;21.388;2022-10-16T00:22:14;3.95;;;3.58;;
42668;SDS011;29384;42.028;21.388;2022-10-16T00:24:39;8.85;;;4.38;;
42668;SDS011;29384;42.028;21.388;2022-10-16T00:27:04;5.85;;;4.90;;
42668;SDS011;29384;42.028;21.388;2022-10-16T00:29:30;13.95;;;5.00;;
42668;SDS011;29384;42.028;21.388;2022-10-16T00:31:55;12.82;;;4.80;;
42668;SDS011;29384;42.028;21.388;2022-10-16T00:34:20;11.57;;;4.65;;
42668;SDS011;29384;42.028;21.388;2022-10-16T00:36:46;7.00;;;4.38;;
42668;SDS011;29384;42.028;21.388;2022-10-16T00:39:11;5.53;;;4.38;;
42668;SDS011;29384;42.028;21.388;2022-10-16T00:41:37;7.15;;;4.40;;
42668;SDS011;29384;42.028;21.388;2022-10-16T00:44:03;4.00;;;3.70;;
42668;SDS011;29384;42.028;21.388;2022-10-16T00:46:30;4.10;;;3.90;;
42668;SDS011;29384;42.028;21.388;2022-10-16T00:49:00;4.82;;;4.53;;
42668;SDS011;29384;42.028;21.388;2022-10-16T00:51:48;8.48;;;3.60;;
42668;SDS011;29384;42.028;21.388;2022-10-16T00:54:16;4.28;;;3.97;;
42668;SDS011;29384;42.028;21.388;2022-10-16T00:56:43;4.82;;;4.38;;
42668;SDS011;29384;42.028;21.388;2022-10-16T00:59:18;5.32;;;4.82;;
42668;SDS011;29384;42.028;21.388;2022-10-16T01:01:44;25.05;;;6.15;;
42668;SDS011;29384;42.028;21.388;2022-10-16T01:04:09;6.03;;;4.50;;
42668;SDS011;29384;42.028;21.388;2022-10-16T01:14:00;7.43;;;5.30;;
42668;SDS011;29384;42.028;21.388;2022-10-16T01:16:41;19.65;;;6.00;;
42668;SDS011;29384;42.028;21.388;2022-10-16T01:19:12;5.20;;;4.72;;
42668;SDS011;29384;42.028;21.388;2022-10-16T01:21:41;5.35;;;4.75;;
42668;SDS011;29384;42.028;21.388;2022-10-16T01:24:14;5.70;;;4.43;;
42668;SDS011;29384;42.028;21.388;2022-10-16T01:29:26;5.53;;;5.13;;
42668;SDS011;29384;42.028;21.388;2022-10-16T01:31:54;7.75;;;5.25;;
42668;SDS011;29384;42.028;21.388;2022-10-16T01:34:23;6.47;;;4.75;;
42668;SDS011;29384;42.028;21.388;2022-10-16T01:36:53;5.00;;;4.63;;
42668;SDS011;29384;42.028;21.388;2022-10-16T01:39:21;7.15;;;5.10;;
42668;SDS011;29384;42.028;21.388;2022-10-16T01:41:48;5.22;;;4.68;;
42668;SDS011;29384;42.028;21.388;2022-10-16T01:44:18;6.82;;;4.75;;
42668;SDS011;29384;42.028;21.388;2022-10-16T01:46:46;5.85;;;4.85;;
42668;SDS011;29384;42.028;21.388;2022-10-16T01:49:12;5.70;;;5.10;;
42668;SDS011;29384;42.028;21.388;2022-10-16T01:51:38;5.60;;;5.07;;
42668;SDS011;29384;42.028;21.388;2022-10-16T01:54:05;5.53;;;4.82;;
42668;SDS011;29384;42.028;21.388;2022-10-16T01:56:31;9.93;;;5.43;;
42668;SDS011;29384;42.028;21.388;2022-10-16T01:59:01;10.07;;;5.13;;
42668;SDS011;29384;42.028;21.388;2022-10-16T02:01:28;7.55;;;5.43;;
42668;SDS011;29384;42.028;21.388;2022-10-16T02:03:55;12.70;;;6.38;;
42668;SDS011;29384;42.028;21.388;2022-10-16T02:06:21;7.90;;;5.10;;
42668;SDS011;29384;42.028;21.388;2022-10-16T02:08:48;6.80;;;4.97;;
42668;SDS011;29384;42.028;21.388;2022-10-16T02:11:13;5.30;;;4.88;;
42668;SDS011;29384;42.028;21.388;2022-10-16T02:13:44;7.50;;;5.10;;
42668;SDS011;29384;42.028;21.388;2022-10-16T02:16:10;7.40;;;4.40;;
42668;SDS011;29384;42.028;21.388;2022-10-16T02:18:36;6.65;;;4.47;;
42668;SDS011;29384;42.028;21.388;2022-10-16T02:23:54;7.43;;;4.15;;
42668;SDS011;29384;42.028;21.388;2022-10-16T02:26:26;4.75;;;3.20;;
42668;SDS011;29384;42.028;21.388;2022-10-16T02:28:55;8.45;;;4.60;;
42668;SDS011;29384;42.028;21.388;2022-10-16T02:31:25;7.60;;;4.75;;
42668;SDS011;29384;42.028;21.388;2022-10-16T02:33:53;4.80;;;4.22;;
42668;SDS011;29384;42.028;21.388;2022-10-16T02:36:20;6.60;;;4.07;;
42668;SDS011;29384;42.028;21.388;2022-10-16T02:38:46;11.95;;;5.82;;
42668;SDS011;29384;42.028;21.388;2022-10-16T02:41:11;5.22;;;4.72;;
42668;SDS011;29384;42.028;21.388;2022-10-16T02:43:37;10.20;;;3.95;;
42668;SDS011;29384;42.028;21.388;2022-10-16T02:46:02;5.25;;;4.82;;
42668;SDS011;29384;42.028;21.388;2022-10-16T02:48:27;6.25;;;4.95;;
42668;SDS011;29384;42.028;21.388;2022-10-16T02:50:53;6.65;;;5.55;;
42668;SDS011;29384;42.028;21.388;2022-10-16T02:53:18;4.95;;;4.40;;
42668;SDS011;29384;42.028;21.388;2022-10-16T02:55:43;4.68;;;4.28;;
42668;SDS011;29384;42.028;21.388;2022-10-16T02:58:09;6.28;;;4.20;;
42668;SDS011;29384;42.028;21.388;2022-10-16T03:00:34;6.32;;;4.35;;
42668;SDS011;29384;42.028;21.388;2022-10-16T03:02:59;8.07;;;4.50;;
42668;SDS011;29384;42.028;21.388;2022-10-16T03:05:24;6.07;;;4.75;;
42668;SDS011;29384;42.028;21.388;2022-10-16T03:07:50;5.63;;;5.07;;
42668;SDS011;29384;42.028;21.388;2022-10-16T03:10:15;5.13;;;4.72;;
42668;SDS011;29384;42.028;21.388;2022-10-16T03:12:40;4.85;;;4.55;;
42668;SDS011;29384;42.028;21.388;2022-10-16T03:15:06;5.70;;;4.63;;
42668;SDS011;29384;42.028;21.388;2022-10-16T03:17:32;5.18;;;4.45;;
42668;SDS011;29384;42.028;21.388;2022-10-16T03:19:57;3.92;;;3.70;;
42668;SDS011;29384;42.028;21.388;2022-10-16T03:22:22;5.70;;;4.20;;
42668;SDS011;29384;42.028;21.388;2022-10-16T03:24:48;3.65;;;3.35;;
42668;SDS011;29384;42.028;21.388;2022-10-16T03:27:13;4.00;;;3.70;;
42668;SDS011;29384;42.028;21.388;2022-10-16T03:29:38;8.18;;;4.93;;
42668;SDS011;29384;42.028;21.388;2022-10-16T03:32:04;7.03;;;4.53;;
42668;SDS011;29384;42.028;21.388;2022-10-16T03:34:29;4.32;;;4.03;;
42668;SDS011;29384;42.028;21.388;2022-10-16T03:36:54;4.68;;;4.38;;
42668;SDS011;29384;42.028;21.388;2022-10-16T03:39:19;3.88;;;3.58;;
42668;SDS011;29384;42.028;21.388;2022-10-16T03:41:45;5.20;;;3.70;;
42668;SDS011;29384;42.028;21.388;2022-10-16T03:44:11;5.05;;;4.28;;
42668;SDS011;29384;42.028;21.388;2022-10-16T03:46:36;4.28;;;3.90;;
42668;SDS011;29384;42.028;21.388;2022-10-16T03:49:02;6.47;;;4.50;;
42668;SDS011;29384;42.028;21.388;2022-10-16T03:51:27;4.60;;;4.20;;
42668;SDS011;29384;42.028;21.388;2022-10-16T03:53:52;6.53;;;4.82;;
42668;SDS011;29384;42.028;21.388;2022-10-16T03:56:18;4.53;;;4.13;;
42668;SDS011;29384;42.028;21.388;2022-10-16T03:58:43;5.68;;;4.05;;
42668;SDS011;29384;42.028;21.388;2022-10-16T04:01:08;4.78;;;4.38;;
42668;SDS011;29384;42.028;21.388;2022-10-16T04:03:34;5.68;;;4.60;;
42668;SDS011;29384;42.028;21.388;2022-10-16T04:05:59;6.53;;;4.68;;
42668;SDS011;29384;42.028;21.388;2022-10-16T04:08:24;4.75;;;4.35;;
42668;SDS011;29384;42.028;21.388;2022-10-16T04:10:50;4.32;;;3.97;;
42668;SDS011;29384;42.028;21.388;2022-10-16T04:13:15;4.50;;;4.05;;
42668;SDS011;29384;42.028;21.388;2022-10-16T04:15:40;5.53;;;4.45;;
42668;SDS011;29384;42.028;21.388;2022-10-16T04:18:06;6.13;;;4.90;;
42668;SDS011;29384;42.028;21.388;2022-10-16T04:20:31;4.88;;;4.47;;
42668;SDS011;29384;42.028;21.388;2022-10-16T04:22:57;7.40;;;5.50;;
42668;SDS011;29384;42.028;21.388;2022-10-16T04:25:22;20.15;;;5.07;;
42668;SDS011;29384;42.028;21.388;2022-10-16T04:27:48;8.10;;;4.38;;
42668;SDS011;29384;42.028;21.388;2022-10-16T04:30:13;6.32;;;3.90;;
42668;SDS011;29384;42.028;21.388;2022-10-16T04:32:39;4.70;;;4.30;;
42668;SDS011;29384;42.028;21.388;2022-10-16T04:35:04;12.93;;;4.47;;
42668;SDS011;29384;42.028;21.388;2022-10-16T04:37:30;4.53;;;4.18;;
42668;SDS011;29384;42.028;21.388;2022-10-16T04:39:55;3.72;;;3.53;;
42668;SDS011;29384;42.028;21.388;2022-10-16T04:42:20;5.47;;;4.97;;
42668;SDS011;29384;42.028;21.388;2022-10-16T04:44:46;5.60;;;4.70;;
42668;SDS011;29384;42.028;21.388;2022-10-16T04:47:11;12.07;;;4.97;;
42668;SDS011;29384;42.028;21.388;2022-10-16T04:49:37;11.88;;;4.57;;
42668;SDS011;29384;42.028;21.388;2022-10-16T04:52:02;6.22;;;4.72;;
42668;SDS011;29384;42.028;21.388;2022-10-16T04:54:27;5.00;;;4.53;;
42668;SDS011;29384;42.028;21.388;2022-10-16T04:56:53;7.88;;;4.93;;
42668;SDS011;29384;42.028;21.388;2022-10-16T04:59:19;9.02;;;5.28;;
42668;SDS011;29384;42.028;21.388;2022-10-16T05:01:45;10.70;;;4.57;;
42668;SDS011;29384;42.028;21.388;2022-10-16T05:04:10;6.13;;;4.47;;
42668;SDS011;29384;42.028;21.388;2022-10-16T05:06:35;5.60;;;5.13;;
42668;SDS011;29384;42.028;21.388;2022-10-16T05:09:01;11.05;;;6.15;;
42668;SDS011;29384;42.028;21.388;2022-10-16T05:11:27;5.88;;;5.30;;
42668;SDS011;29384;42.028;21.388;2022-10-16T05:13:52;5.22;;;4.20;;
42668;SDS011;29384;42.028;21.388;2022-10-16T05:16:17;5.13;;;4.70;;
42668;SDS011;29384;42.028;21.388;2022-10-16T05:18:43;5.50;;;4.72;;
42668;SDS011;29384;42.028;21.388;2022-10-16T05:21:08;6.22;;;5.32;;
42668;SDS011;29384;42.028;21.388;2022-10-16T05:23:33;12.25;;;5.55;;
42668;SDS011;29384;42.028;21.388;2022-10-16T05:25:59;18.67;;;5.78;;
42668;SDS011;29384;42.028;21.388;2022-10-16T05:28:25;9.73;;;5.57;;
42668;SDS011;29384;42.028;21.388;2022-10-16T05:30:50;6.82;;;5.90;;
42668;SDS011;29384;42.028;21.388;2022-10-16T05:33:15;8.77;;;5.45;;
42668;SDS011;29384;42.028;21.388;2022-10-16T05:35:41;11.93;;;7.40;;
42668;SDS011;29384;42.028;21.388;2022-10-16T05:38:06;8.07;;;6.00;;
42668;SDS011;29384;42.028;21.388;2022-10-16T05:40:32;5.88;;;4.85;;
42668;SDS011;29384;42.028;21.388;2022-10-16T05:42:57;3.88;;;3.50;;
42668;SDS011;29384;42.028;21.388;2022-10-16T05:45:22;7.90;;;4.05;;
42668;SDS011;29384;42.028;21.388;2022-10-16T05:47:48;5.00;;;4.35;;
42668;SDS011;29384;42.028;21.388;2022-10-16T05:50:13;5.55;;;4.50;;
42668;SDS011;29384;42.028;21.388;2022-10-16T05:52:39;5.50;;;4.72;;
42668;SDS011;29384;42.028;21.388;2022-10-16T05:55:04;5.97;;;4.00;;
42668;SDS011;29384;42.028;21.388;2022-10-16T05:57:30;5.22;;;3.95;;
42668;SDS011;29384;42.028;21.388;2022-10-16T05:59:55;5.50;;;3.80;;
42668;SDS011;29384;42.028;21.388;2022-10-16T06:02:20;6.28;;;5.50;;
42668;SDS011;29384;42.028;21.388;2022-10-16T06:04:46;4.53;;;4.07;;
42668;SDS011;29384;42.028;21.388;2022-10-16T06:07:11;4.82;;;4.47;;
42668;SDS011;29384;42.028;21.388;2022-10-16T06:09:36;5.57;;;4.95;;
42668;SDS011;29384;42.028;21.388;2022-10-16T06:12:02;4.40;;;4.00;;
42668;SDS011;29384;42.028;21.388;2022-10-16T06:14:27;10.80;;;4.20;;
42668;SDS011;29384;42.028;21.388;2022-10-16T06:16:52;4.43;;;3.92;;
42668;SDS011;29384;42.028;21.388;2022-10-16T06:19:17;7.50;;;3.83;;
42668;SDS011;29384;42.028;21.388;2022-10-16T06:21:43;5.32;;;4.38;;
42668;SDS011;29384;42.028;21.388;2022-10-16T06:24:09;7.53;;;3.72;;
42668;SDS011;29384;42.028;21.388;2022-10-16T06:26:34;4.68;;;3.97;;
42668;SDS011;29384;42.028;21.388;2022-10-16T06:29:00;7.47;;;4.18;;
42668;SDS011;29384;42.028;21.388;2022-10-16T06:31:25;9.32;;;4.25;;
42668;SDS011;29384;42.028;21.388;2022-10-16T06:33:53;5.85;;;4.03;;
42668;SDS011;29384;42.028;21.388;2022-10-16T06:36:18;6.88;;;3.95;;
42668;SDS011;29384;42.028;21.388;2022-10-16T06:38:44;7.05;;;4.07;;
42668;SDS011;29384;42.028;21.388;2022-10-16T06:41:11;10.82;;;4.57;;
42668;SDS011;29384;42.028;21.388;2022-10-16T06:43:36;8.38;;;3.83;;
42668;SDS011;29384;42.028;21.388;2022-10-16T06:46:02;10.55;;;5.30;;
42668;SDS011;29384;42.028;21.388;2022-10-16T06:48:28;7.80;;;4.90;;
42668;SDS011;29384;42.028;21.388;2022-10-16T06:51:00;10.63;;;5.10;;
42668;SDS011;29384;42.028;21.388;2022-10-16T06:53:28;7.80;;;5.85;;
42668;SDS011;29384;42.028;21.388;2022-10-16T06:55:54;5.07;;;4.18;;
42668;SDS011;29384;42.028;21.388;2022-10-16T06:58:19;7.32;;;4.60;;
42668;SDS011;29384;42.028;21.388;2022-10-16T07:00:45;4.82;;;4.32;;
42668;SDS011;29384;42.028;21.388;2022-10-16T07:03:10;6.78;;;4.20;;
42668;SDS011;29384;42.028;21.388;2022-10-16T07:05:42;7.82;;;3.65;;
42668;SDS011;29384;42.028;21.388;2022-10-16T07:08:07;4.28;;;3.80;;
42668;SDS011;29384;42.028;21.388;2022-10-16T07:10:33;10.25;;;4.93;;
42668;SDS011;29384;42.028;21.388;2022-10-16T07:12:59;5.57;;;3.80;;
42668;SDS011;29384;42.028;21.388;2022-10-16T07:15:24;3.05;;;2.85;;
42668;SDS011;29384;42.028;21.388;2022-10-16T07:17:50;4.65;;;2.92;;
42668;SDS011;29384;42.028;21.388;2022-10-16T07:20:15;6.10;;;4.47;;
42668;SDS011;29384;42.028;21.388;2022-10-16T07:22:41;22.42;;;3.97;;
42668;SDS011;29384;42.028;21.388;2022-10-16T07:25:06;9.55;;;4.28;;
42668;SDS011;29384;42.028;21.388;2022-10-16T07:27:31;3.72;;;3.42;;
42668;SDS011;29384;42.028;21.388;2022-10-16T07:29:57;5.13;;;3.70;;
42668;SDS011;29384;42.028;21.388;2022-10-16T07:32:22;3.90;;;3.55;;
42668;SDS011;29384;42.028;21.388;2022-10-16T07:34:48;4.32;;;3.63;;
42668;SDS011;29384;42.028;21.388;2022-10-16T07:37:13;3.45;;;3.15;;
42668;SDS011;29384;42.028;21.388;2022-10-16T07:39:39;3.47;;;3.10;;
42668;SDS011;29384;42.028;21.388;2022-10-16T07:42:04;4.80;;;3.63;;
42668;SDS011;29384;42.028;21.388;2022-10-16T07:44:30;5.65;;;3.78;;
42668;SDS011;29384;42.028;21.388;2022-10-16T07:46:55;4.20;;;3.80;;
42668;SDS011;29384;42.028;21.388;2022-10-16T07:49:20;3.90;;;3.50;;
42668;SDS011;29384;42.028;21.388;2022-10-16T07:51:46;6.15;;;3.45;;
42668;SDS011;29384;42.028;21.388;2022-10-16T07:54:11;3.85;;;3.25;;
42668;SDS011;29384;42.028;21.388;2022-10-16T07:56:36;3.58;;;2.80;;
42668;SDS011;29384;42.028;21.388;2022-10-16T07:59:02;7.20;;;3.45;;
42668;SDS011;29384;42.028;21.388;2022-10-16T08:01:27;5.53;;;3.83;;
42668;SDS011;29384;42.028;21.388;2022-10-16T08:03:52;3.70;;;3.35;;
42668;SDS011;29384;42.028;21.388;2022-10-16T08:06:19;5.78;;;3.25;;
42668;SDS011;29384;42.028;21.388;2022-10-16T08:08:44;5.25;;;3.50;;
42668;SDS011;29384;42.028;21.388;2022-10-16T08:11:10;4.78;;;3.70;;
42668;SDS011;29384;42.028;21.388;2022-10-16T08:13:35;4.50;;;4.10;;
42668;SDS011;29384;42.028;21.388;2022-10-16T08:16:01;6.10;;;4.35;;
42668;SDS011;29384;42.028;21.388;2022-10-16T08:18:26;3.75;;;3.55;;
42668;SDS011;29384;42.028;21.388;2022-10-16T08:20:55;5.30;;;3.47;;
42668;SDS011;29384;42.028;21.388;2022-10-16T08:23:21;4.18;;;3.83;;
42668;SDS011;29384;42.028;21.388;2022-10-16T08:25:47;6.25;;;3.78;;
42668;SDS011;29384;42.028;21.388;2022-10-16T08:28:12;5.22;;;4.72;;
42668;SDS011;29384;42.028;21.388;2022-10-16T08:30:37;4.55;;;4.13;;
42668;SDS011;29384;42.028;21.388;2022-10-16T08:33:03;5.43;;;3.80;;
42668;SDS011;29384;42.028;21.388;2022-10-16T08:35:28;7.07;;;4.85;;
42668;SDS011;29384;42.028;21.388;2022-10-16T08:37:53;5.25;;;4.85;;
42668;SDS011;29384;42.028;21.388;2022-10-16T08:48:20;4.82;;;4.03;;
42668;SDS011;29384;42.028;21.388;2022-10-16T08:50:48;7.22;;;3.83;;
42668;SDS011;29384;42.028;21.388;2022-10-16T08:53:15;4.50;;;3.90;;
42668;SDS011;29384;42.028;21.388;2022-10-16T08:55:43;6.63;;;3.45;;
42668;SDS011;29384;42.028;21.388;2022-10-16T08:58:13;6.13;;;3.35;;
42668;SDS011;29384;42.028;21.388;2022-10-16T09:00:40;6.05;;;3.60;;
42668;SDS011;29384;42.028;21.388;2022-10-16T09:03:30;4.03;;;3.70;;
42668;SDS011;29384;42.028;21.388;2022-10-16T09:08:44;3.97;;;3.78;;
42668;SDS011;29384;42.028;21.388;2022-10-16T09:11:33;14.45;;;4.28;;
42668;SDS011;29384;42.028;21.388;2022-10-16T09:16:34;4.57;;;3.92;;
42668;SDS011;29384;42.028;21.388;2022-10-16T09:19:03;4.82;;;4.43;;
42668;SDS011;29384;42.028;21.388;2022-10-16T09:21:31;6.63;;;4.03;;
42668;SDS011;29384;42.028;21.388;2022-10-16T09:23:58;7.07;;;4.00;;
42668;SDS011;29384;42.028;21.388;2022-10-16T09:26:25;3.65;;;3.45;;
42668;SDS011;29384;42.028;21.388;2022-10-16T09:28:51;3.95;;;3.60;;
42668;SDS011;29384;42.028;21.388;2022-10-16T09:31:20;5.18;;;4.10;;
42668;SDS011;29384;42.028;21.388;2022-10-16T09:33:48;5.32;;;4.07;;
42668;SDS011;29384;42.028;21.388;2022-10-16T09:36:15;3.92;;;3.63;;
42668;SDS011;29384;42.028;21.388;2022-10-16T09:38:41;5.03;;;3.15;;
42668;SDS011;29384;42.028;21.388;2022-10-16T09:43:56;8.13;;;4.13;;
42668;SDS011;29384;42.028;21.388;2022-10-16T09:46:24;4.07;;;3.70;;
42668;SDS011;29384;42.028;21.388;2022-10-16T09:48:51;3.88;;;3.58;;
42668;SDS011;29384;42.028;21.388;2022-10-16T09:51:20;3.08;;;2.88;;
42668;SDS011;29384;42.028;21.388;2022-10-16T09:53:46;3.67;;;3.47;;
42668;SDS011;29384;42.028;21.388;2022-10-16T09:56:20;4.47;;;3.53;;
42668;SDS011;29384;42.028;21.388;2022-10-16T10:01:12;3.15;;;2.45;;
42668;SDS011;29384;42.028;21.388;2022-10-16T10:03:39;3.65;;;3.05;;
42668;SDS011;29384;42.028;21.388;2022-10-16T10:11:48;3.45;;;3.22;;
42668;SDS011;29384;42.028;21.388;2022-10-16T10:14:17;6.47;;;3.03;;
42668;SDS011;29384;42.028;21.388;2022-10-16T10:16:43;4.55;;;3.42;;
42668;SDS011;29384;42.028;21.388;2022-10-16T10:19:15;6.05;;;3.38;;
42668;SDS011;29384;42.028;21.388;2022-10-16T10:21:41;6.32;;;2.90;;
42668;SDS011;29384;42.028;21.388;2022-10-16T10:24:10;5.38;;;3.38;;
42668;SDS011;29384;42.028;21.388;2022-10-16T10:26:36;9.88;;;3.72;;
42668;SDS011;29384;42.028;21.388;2022-10-16T10:31:38;3.08;;;2.78;;
42668;SDS011;29384;42.028;21.388;2022-10-16T10:36:34;6.15;;;2.92;;
42668;SDS011;29384;42.028;21.388;2022-10-16T10:51:36;4.95;;;3.38;;
42668;SDS011;29384;42.028;21.388;2022-10-16T10:54:22;3.35;;;3.05;;
42668;SDS011;29384;42.028;21.388;2022-10-16T11:01:56;3.58;;;2.53;;
42668;SDS011;29384;42.028;21.388;2022-10-16T11:07:01;4.40;;;2.55;;
42668;SDS011;29384;42.028;21.388;2022-10-16T11:09:31;2.80;;;2.63;;
42668;SDS011;29384;42.028;21.388;2022-10-16T11:12:03;3.58;;;2.42;;
42668;SDS011;29384;42.028;21.388;2022-10-16T11:14:34;2.63;;;2.42;;
42668;SDS011;29384;42.028;21.388;2022-10-16T11:19:45;2.22;;;2.13;;
42668;SDS011;29384;42.028;21.388;2022-10-16T11:22:32;2.97;;;2.78;;
42668;SDS011;29384;42.028;21.388;2022-10-16T11:25:00;2.58;;;2.45;;
42668;SDS011;29384;42.028;21.388;2022-10-16T11:30:06;5.70;;;3.10;;
42668;SDS011;29384;42.028;21.388;2022-10-16T11:35:14;5.13;;;3.60;;
42668;SDS011;29384;42.028;21.388;2022-10-16T11:37:43;4.53;;;4.15;;
42668;SDS011;29384;42.028;21.388;2022-10-16T11:40:22;5.68;;;3.30;;
42668;SDS011;29384;42.028;21.388;2022-10-16T11:42:51;4.13;;;3.72;;
42668;SDS011;29384;42.028;21.388;2022-10-16T11:48:01;3.42;;;3.17;;
42668;SDS011;29384;42.028;21.388;2022-10-16T11:50:31;4.10;;;3.75;;
42668;SDS011;29384;42.028;21.388;2022-10-16T11:53:03;7.45;;;4.03;;
42668;SDS011;29384;42.028;21.388;2022-10-16T11:55:36;3.67;;;3.38;;
42668;SDS011;29384;42.028;21.388;2022-10-16T11:58:05;9.25;;;4.57;;
42668;SDS011;29384;42.028;21.388;2022-10-16T12:00:40;4.30;;;3.40;;
42668;SDS011;29384;42.028;21.388;2022-10-16T12:08:18;3.47;;;3.20;;
42668;SDS011;29384;42.028;21.388;2022-10-16T12:10:45;3.85;;;3.25;;
42668;SDS011;29384;42.028;21.388;2022-10-16T12:13:30;3.45;;;3.22;;
42668;SDS011;29384;42.028;21.388;2022-10-16T12:16:05;3.05;;;2.83;;
42668;SDS011;29384;42.028;21.388;2022-10-16T12:18:30;3.15;;;2.78;;
42668;SDS011;29384;42.028;21.388;2022-10-16T12:20:56;7.43;;;3.88;;
42668;SDS011;29384;42.028;21.388;2022-10-16T12:23:30;3.85;;;2.83;;
42668;SDS011;29384;42.028;21.388;2022-10-16T12:25:56;3.00;;;2.80;;
42668;SDS011;29384;42.028;21.388;2022-10-16T12:28:25;4.97;;;3.38;;
42668;SDS011;29384;42.028;21.388;2022-10-16T12:33:55;5.05;;;3.58;;
42668;SDS011;29384;42.028;21.388;2022-10-16T12:36:13;3.35;;;3.05;;
42668;SDS011;29384;42.028;21.388;2022-10-16T12:41:10;5.50;;;2.88;;
42668;SDS011;29384;42.028;21.388;2022-10-16T12:43:39;5.10;;;3.80;;
42668;SDS011;29384;42.028;21.388;2022-10-16T12:48:30;5.15;;;2.75;;
42668;SDS011;29384;42.028;21.388;2022-10-16T12:50:56;3.92;;;2.90;;
42668;SDS011;29384;42.028;21.388;2022-10-16T12:53:22;4.85;;;3.83;;
42668;SDS011;29384;42.028;21.388;2022-10-16T12:56:10;4.05;;;3.75;;
42668;SDS011;29384;42.028;21.388;2022-10-16T13:03:43;5.60;;;2.97;;
42668;SDS011;29384;42.028;21.388;2022-10-16T13:08:46;2.97;;;2.58;;
42668;SDS011;29384;42.028;21.388;2022-10-16T13:11:27;3.92;;;3.38;;
42668;SDS011;29384;42.028;21.388;2022-10-16T13:32:00;3.83;;;2.92;;
42668;SDS011;29384;42.028;21.388;2022-10-16T13:34:25;4.97;;;2.60;;
42668;SDS011;29384;42.028;21.388;2022-10-16T13:36:52;5.63;;;2.85;;
42668;SDS011;29384;42.028;21.388;2022-10-16T13:41:46;2.92;;;2.60;;
42668;SDS011;29384;42.028;21.388;2022-10-16T13:44:22;2.38;;;2.28;;
42668;SDS011;29384;42.028;21.388;2022-10-16T13:46:57;2.80;;;2.60;;
42668;SDS011;29384;42.028;21.388;2022-10-16T13:49:22;5.47;;;3.75;;
42668;SDS011;29384;42.028;21.388;2022-10-16T13:51:58;4.05;;;3.45;;
42668;SDS011;29384;42.028;21.388;2022-10-16T13:54:24;32.70;;;4.75;;
42668;SDS011;29384;42.028;21.388;2022-10-16T13:56:49;3.92;;;3.58;;
42668;SDS011;29384;42.028;21.388;2022-10-16T14:01:49;4.60;;;2.97;;
42668;SDS011;29384;42.028;21.388;2022-10-16T14:04:15;4.72;;;2.53;;
42668;SDS011;29384;42.028;21.388;2022-10-16T14:06:41;3.67;;;3.25;;
42668;SDS011;29384;42.028;21.388;2022-10-16T14:14:16;6.40;;;2.88;;
42668;SDS011;29384;42.028;21.388;2022-10-16T14:16:42;3.17;;;2.88;;
42668;SDS011;29384;42.028;21.388;2022-10-16T14:19:19;2.83;;;2.55;;
42668;SDS011;29384;42.028;21.388;2022-10-16T14:21:45;3.25;;;2.95;;
42668;SDS011;29384;42.028;21.388;2022-10-16T14:24:11;3.20;;;3.00;;
42668;SDS011;29384;42.028;21.388;2022-10-16T14:26:46;2.67;;;2.50;;
42668;SDS011;29384;42.028;21.388;2022-10-16T14:29:13;2.55;;;2.45;;
42668;SDS011;29384;42.028;21.388;2022-10-16T14:31:39;2.35;;;2.25;;
42668;SDS011;29384;42.028;21.388;2022-10-16T14:34:22;4.13;;;2.65;;
42668;SDS011;29384;42.028;21.388;2022-10-16T14:36:49;3.78;;;3.00;;
42668;SDS011;29384;42.028;21.388;2022-10-16T14:39:17;2.45;;;2.35;;
42668;SDS011;29384;42.028;21.388;2022-10-16T14:41:46;2.83;;;2.72;;
42668;SDS011;29384;42.028;21.388;2022-10-16T14:44:13;3.58;;;3.28;;
42668;SDS011;29384;42.028;21.388;2022-10-16T14:46:39;6.22;;;4.15;;
42668;SDS011;29384;42.028;21.388;2022-10-16T14:51:33;4.80;;;3.45;;
42668;SDS011;29384;42.028;21.388;2022-10-16T14:53:58;3.42;;;3.22;;
42668;SDS011;29384;42.028;21.388;2022-10-16T14:56:24;3.58;;;3.28;;
42668;SDS011;29384;42.028;21.388;2022-10-16T14:58:50;2.67;;;2.58;;
42668;SDS011;29384;42.028;21.388;2022-10-16T15:01:16;3.33;;;3.08;;
42668;SDS011;29384;42.028;21.388;2022-10-16T15:03:41;8.90;;;2.95;;
42668;SDS011;29384;42.028;21.388;2022-10-16T15:06:14;4.97;;;3.13;;
42668;SDS011;29384;42.028;21.388;2022-10-16T15:08:40;4.97;;;2.80;;
42668;SDS011;29384;42.028;21.388;2022-10-16T15:11:08;3.03;;;2.83;;
42668;SDS011;29384;42.028;21.388;2022-10-16T15:13:34;3.28;;;3.08;;
42668;SDS011;29384;42.028;21.388;2022-10-16T15:16:00;3.72;;;2.10;;
42668;SDS011;29384;42.028;21.388;2022-10-16T15:18:25;3.17;;;2.88;;
42668;SDS011;29384;42.028;21.388;2022-10-16T15:20:51;3.10;;;2.80;;
42668;SDS011;29384;42.028;21.388;2022-10-16T15:23:17;6.85;;;3.10;;
42668;SDS011;29384;42.028;21.388;2022-10-16T15:25:44;5.30;;;3.65;;
42668;SDS011;29384;42.028;21.388;2022-10-16T15:28:10;4.20;;;3.90;;
42668;SDS011;29384;42.028;21.388;2022-10-16T15:30:36;5.15;;;3.88;;
42668;SDS011;29384;42.028;21.388;2022-10-16T15:33:02;5.20;;;4.50;;
42668;SDS011;29384;42.028;21.388;2022-10-16T15:35:27;5.13;;;3.80;;
42668;SDS011;29384;42.028;21.388;2022-10-16T15:37:53;4.57;;;4.03;;
42668;SDS011;29384;42.028;21.388;2022-10-16T15:40:19;4.88;;;4.07;;
42668;SDS011;29384;42.028;21.388;2022-10-16T15:42:45;5.13;;;3.50;;
42668;SDS011;29384;42.028;21.388;2022-10-16T15:45:10;25.00;;;5.22;;
42668;SDS011;29384;42.028;21.388;2022-10-16T15:47:36;13.35;;;7.68;;
42668;SDS011;29384;42.028;21.388;2022-10-16T15:50:01;9.82;;;6.50;;
42668;SDS011;29384;42.028;21.388;2022-10-16T15:52:27;42.25;;;23.08;;
42668;SDS011;29384;42.028;21.388;2022-10-16T15:54:53;77.25;;;40.95;;
42668;SDS011;29384;42.028;21.388;2022-10-16T15:57:19;75.88;;;39.67;;
42668;SDS011;29384;42.028;21.388;2022-10-16T15:59:44;60.28;;;31.73;;
42668;SDS011;29384;42.028;21.388;2022-10-16T16:02:09;43.45;;;24.58;;
42668;SDS011;29384;42.028;21.388;2022-10-16T16:04:35;38.30;;;21.13;;
42668;SDS011;29384;42.028;21.388;2022-10-16T16:07:00;32.95;;;15.77;;
42668;SDS011;29384;42.028;21.388;2022-10-16T16:09:28;20.38;;;9.95;;
42668;SDS011;29384;42.028;21.388;2022-10-16T16:11:53;13.20;;;7.22;;
42668;SDS011;29384;42.028;21.388;2022-10-16T16:14:19;17.88;;;6.82;;
42668;SDS011;29384;42.028;21.388;2022-10-16T16:16:44;11.23;;;7.25;;
42668;SDS011;29384;42.028;21.388;2022-10-16T16:22:12;11.20;;;6.65;;
42668;SDS011;29384;42.028;21.388;2022-10-16T16:24:37;9.05;;;6.00;;
42668;SDS011;29384;42.028;21.388;2022-10-16T16:27:02;9.60;;;6.25;;
42668;SDS011;29384;42.028;21.388;2022-10-16T16:29:28;13.23;;;8.30;;
42668;SDS011;29384;42.028;21.388;2022-10-16T16:31:53;9.00;;;7.28;;
42668;SDS011;29384;42.028;21.388;2022-10-16T16:34:23;11.30;;;6.47;;
42668;SDS011;29384;42.028;21.388;2022-10-16T16:36:48;8.73;;;5.35;;
42668;SDS011;29384;42.028;21.388;2022-10-16T16:39:13;16.83;;;5.20;;